createdAt,value
2023-10-29T00:02:24.507Z,12.60
2023-10-29T00:04:52.918Z,12.60
2023-10-29T00:07:21.001Z,12.60
2023-10-29T00:09:49.056Z,12.60
2023-10-29T00:12:17.255Z,12.60
2023-10-29T00:14:47.036Z,12.60
2023-10-29T00:17:15.613Z,12.60
2023-10-29T00:19:43.706Z,12.60
2023-10-29T00:22:12.634Z,12.50
2023-10-29T00:24:40.821Z,12.60
2023-10-29T00:27:08.972Z,12.50
2023-10-29T00:29:37.968Z,12.50
2023-10-29T00:32:07.711Z,12.50
2023-10-29T00:34:36.081Z,12.50
2023-10-29T00:37:04.478Z,12.60
2023-10-29T00:39:32.835Z,12.60
2023-10-29T00:42:00.144Z,12.60
2023-10-29T00:44:28.328Z,12.60
2023-10-29T00:46:57.328Z,12.70
2023-10-29T00:49:28.439Z,12.70
2023-10-29T00:51:57.337Z,12.70
2023-10-29T00:54:25.945Z,12.70
2023-10-29T00:56:55.064Z,12.60
2023-10-29T00:59:24.423Z,12.60
2023-10-29T01:01:53.638Z,12.60
2023-10-29T01:04:22.621Z,12.60
2023-10-29T01:06:52.258Z,12.60
2023-10-29T01:09:20.841Z,12.60
2023-10-29T01:11:49.157Z,12.70
2023-10-29T01:14:17.424Z,12.70
2023-10-29T01:16:45.901Z,12.70
2023-10-29T01:19:14.053Z,12.70
2023-10-29T01:21:43.160Z,12.70
2023-10-29T01:24:13.001Z,12.70
2023-10-29T01:26:42.111Z,12.70
2023-10-29T01:29:10.746Z,12.70
2023-10-29T01:31:38.914Z,12.60
2023-10-29T01:34:07.081Z,12.60
2023-10-29T01:36:35.156Z,12.60
2023-10-29T01:39:03.319Z,12.60
2023-10-29T01:41:33.101Z,12.70
2023-10-29T01:44:01.723Z,12.70
2023-10-29T01:46:29.856Z,12.70
2023-10-29T01:48:58.115Z,12.70
2023-10-29T01:51:26.604Z,12.70
2023-10-29T01:53:54.851Z,12.70
2023-10-29T01:56:23.188Z,12.70
2023-10-29T01:58:52.786Z,12.70
2023-10-29T02:01:20.894Z,12.70
2023-10-29T02:03:49.175Z,12.70
2023-10-29T02:06:18.479Z,12.80
2023-10-29T02:08:46.905Z,12.80
2023-10-29T02:11:16.613Z,12.80
2023-10-29T02:13:45.733Z,12.80
2023-10-29T02:16:15.239Z,12.80
2023-10-29T02:18:43.745Z,12.80
2023-10-29T02:21:11.867Z,12.70
2023-10-29T02:23:41.356Z,12.70
2023-10-29T02:26:09.603Z,12.70
2023-10-29T02:28:37.703Z,12.80
2023-10-29T02:31:05.906Z,12.80
2023-10-29T02:33:34.145Z,12.90
2023-10-29T02:36:02.601Z,12.90
2023-10-29T02:38:30.702Z,12.90
2023-10-29T02:41:00.201Z,12.90
2023-10-29T02:43:28.908Z,12.90
2023-10-29T02:45:57.050Z,12.90
2023-10-29T02:48:26.179Z,12.90
2023-10-29T02:50:55.087Z,12.90
2023-10-29T02:53:23.759Z,12.90
2023-10-29T02:55:52.408Z,12.90
2023-10-29T02:58:23.235Z,12.90
2023-10-29T03:00:53.880Z,12.90
2023-10-29T03:03:22.134Z,12.90
2023-10-29T03:05:57.116Z,12.90
2023-10-29T03:08:26.093Z,13.00
2023-10-29T03:10:54.269Z,13.00
2023-10-29T03:13:23.718Z,13.00
2023-10-29T03:15:51.872Z,13.00
2023-10-29T03:18:20.029Z,13.00
2023-10-29T03:20:47.208Z,12.90
2023-10-29T03:23:15.466Z,12.90
2023-10-29T03:25:45.968Z,12.90
2023-10-29T03:28:14.171Z,12.90
2023-10-29T03:30:43.664Z,12.90
2023-10-29T03:33:11.878Z,12.90
2023-10-29T03:35:40.067Z,12.90
2023-10-29T03:38:08.978Z,12.80
2023-10-29T03:40:38.196Z,12.80
2023-10-29T03:43:06.415Z,12.80
2023-10-29T03:45:34.834Z,12.70
2023-10-29T03:48:04.445Z,12.70
2023-10-29T03:50:32.667Z,12.60
2023-10-29T03:53:01.166Z,12.60
2023-10-29T03:55:29.640Z,12.60
2023-10-29T03:57:58.606Z,12.60
2023-10-29T04:00:26.700Z,12.70
2023-10-29T04:02:54.839Z,12.60
2023-10-29T04:05:24.535Z,12.60
2023-10-29T04:07:54.822Z,12.60
2023-10-29T04:10:22.930Z,12.70
2023-10-29T04:12:51.049Z,12.60
2023-10-29T04:15:19.199Z,12.60
2023-10-29T04:17:48.345Z,12.60
2023-10-29T04:20:16.719Z,12.60
2023-10-29T04:22:46.664Z,12.70
2023-10-29T04:25:14.736Z,12.80
2023-10-29T04:27:42.856Z,12.80
2023-10-29T04:30:11.881Z,12.80
2023-10-29T04:32:40.144Z,12.80
2023-10-29T04:35:08.847Z,12.70
2023-10-29T04:37:37.106Z,12.80
2023-10-29T04:40:08.044Z,12.80
2023-10-29T04:42:36.117Z,12.80
2023-10-29T04:45:04.665Z,12.80
2023-10-29T04:47:32.927Z,12.80
2023-10-29T04:50:01.046Z,12.70
2023-10-29T04:52:29.194Z,12.70
2023-10-29T04:54:57.263Z,12.80
2023-10-29T04:57:26.740Z,12.80
2023-10-29T04:59:54.837Z,12.70
2023-10-29T05:02:23.926Z,12.70
2023-10-29T05:04:52.151Z,12.70
2023-10-29T05:07:20.860Z,12.70
2023-10-29T05:09:48.975Z,12.70
2023-10-29T05:12:17.141Z,12.70
2023-10-29T05:14:47.802Z,12.70
2023-10-29T05:17:16.123Z,12.70
2023-10-29T05:19:45.331Z,12.80
2023-10-29T05:22:13.470Z,12.80
2023-10-29T05:24:41.622Z,12.80
2023-10-29T05:27:09.735Z,12.90
2023-10-29T05:29:37.841Z,12.80
2023-10-29T05:32:08.377Z,12.90
2023-10-29T05:34:36.451Z,12.90
2023-10-29T05:37:04.936Z,13.00
2023-10-29T05:39:33.328Z,13.00
2023-10-29T05:42:01.497Z,13.00
2023-10-29T05:44:29.654Z,13.00
2023-10-29T05:46:57.830Z,13.10
2023-10-29T05:49:27.239Z,13.00
2023-10-29T05:51:55.340Z,13.00
2023-10-29T05:54:23.469Z,13.10
2023-10-29T05:56:51.573Z,13.10
2023-10-29T05:59:19.733Z,13.20
2023-10-29T06:01:47.812Z,13.20
2023-10-29T06:04:15.994Z,13.20
2023-10-29T06:06:45.596Z,13.30
2023-10-29T06:09:23.705Z,13.30
2023-10-29T06:11:53.921Z,13.30
2023-10-29T06:14:23.900Z,13.40
2023-10-29T06:16:59.753Z,13.40
2023-10-29T06:19:31.824Z,13.50
2023-10-29T06:22:01.523Z,13.50
2023-10-29T06:24:29.969Z,13.50
2023-10-29T06:26:58.231Z,13.50
2023-10-29T06:29:26.512Z,13.60
2023-10-29T06:31:54.625Z,13.60
2023-10-29T06:34:24.180Z,13.60
2023-10-29T06:36:52.280Z,13.60
2023-10-29T06:39:21.706Z,13.50
2023-10-29T06:41:49.804Z,13.50
2023-10-29T06:44:18.008Z,13.50
2023-10-29T06:46:46.149Z,13.50
2023-10-29T06:49:14.267Z,13.50
2023-10-29T06:51:42.896Z,13.50
2023-10-29T06:54:11.057Z,13.50
2023-10-29T06:56:41.911Z,13.50
2023-10-29T06:59:11.457Z,13.60
2023-10-29T07:01:39.584Z,13.60
2023-10-29T07:04:09.430Z,13.60
2023-10-29T07:06:37.830Z,13.70
2023-10-29T07:09:06.055Z,13.60
2023-10-29T07:11:34.299Z,13.60
2023-10-29T07:14:03.772Z,13.60
2023-10-29T07:16:32.129Z,13.60
2023-10-29T07:19:00.273Z,13.50
2023-10-29T07:21:30.688Z,13.50
2023-10-29T07:23:59.164Z,13.60
2023-10-29T07:26:27.338Z,13.70
2023-10-29T07:28:55.516Z,13.70
2023-10-29T07:31:24.998Z,13.70
2023-10-29T07:33:54.099Z,13.70
2023-10-29T07:36:23.169Z,13.70
2023-10-29T07:38:51.377Z,13.70
2023-10-29T07:41:22.922Z,13.60
2023-10-29T07:43:51.897Z,13.60
2023-10-29T07:46:21.438Z,13.60
2023-10-29T07:48:50.987Z,13.70
2023-10-29T07:51:19.073Z,13.70
2023-10-29T07:53:47.202Z,13.70
2023-10-29T07:56:16.732Z,13.80
2023-10-29T07:58:45.315Z,13.80
2023-10-29T08:01:13.834Z,13.90
2023-10-29T08:03:42.232Z,13.90
2023-10-29T08:06:12.438Z,13.80
2023-10-29T08:08:41.148Z,13.80
2023-10-29T08:11:18.308Z,13.80
2023-10-29T08:13:46.427Z,13.80
2023-10-29T08:16:14.808Z,13.80
2023-10-29T08:18:43.041Z,13.80
2023-10-29T08:21:12.597Z,13.90
2023-10-29T08:23:40.734Z,13.90
2023-10-29T08:26:08.861Z,13.90
2023-10-29T08:28:38.022Z,14.00
2023-10-29T08:31:06.338Z,14.00
2023-10-29T08:33:34.684Z,14.00
2023-10-29T08:36:03.042Z,14.00
2023-10-29T08:38:32.564Z,14.10
2023-10-29T08:41:00.860Z,14.10
2023-10-29T08:43:31.623Z,14.20
2023-10-29T08:46:00.037Z,14.30
2023-10-29T08:48:28.386Z,14.30
2023-10-29T08:50:56.606Z,14.30
2023-10-29T08:53:24.759Z,14.40
2023-10-29T08:55:54.899Z,14.40
2023-10-29T08:58:23.119Z,14.50
2023-10-29T09:00:52.397Z,14.60
2023-10-29T09:03:20.599Z,14.60
2023-10-29T09:05:49.323Z,14.70
2023-10-29T09:08:17.564Z,14.70
2023-10-29T09:10:46.518Z,14.70
2023-10-29T09:13:20.161Z,14.70
2023-10-29T09:15:50.147Z,14.70
2023-10-29T09:18:18.554Z,14.80
2023-10-29T09:20:47.787Z,14.80
2023-10-29T09:23:16.300Z,14.90
2023-10-29T09:25:46.006Z,14.90
2023-10-29T09:28:15.497Z,14.80
2023-10-29T09:30:44.524Z,14.80
2023-10-29T09:33:14.436Z,14.90
2023-10-29T09:35:42.726Z,14.90
2023-10-29T09:38:11.193Z,15.00
2023-10-29T09:40:39.684Z,15.00
2023-10-29T09:43:09.929Z,15.00
2023-10-29T09:45:47.192Z,15.10
2023-10-29T09:48:16.634Z,15.10
2023-10-29T09:50:45.478Z,15.10
2023-10-29T09:53:14.706Z,15.10
2023-10-29T09:55:42.853Z,15.10
2023-10-29T09:58:11.162Z,15.00
2023-10-29T10:00:41.540Z,15.10
2023-10-29T10:03:09.831Z,15.10
2023-10-29T10:05:40.773Z,15.20
2023-10-29T10:08:09.073Z,15.20
2023-10-29T10:10:41.483Z,15.20
2023-10-29T10:13:10.524Z,15.20
2023-10-29T10:15:40.196Z,15.30
2023-10-29T10:18:08.667Z,15.30
2023-10-29T10:20:37.792Z,15.40
2023-10-29T10:23:09.076Z,15.40
2023-10-29T10:25:37.481Z,15.40
2023-10-29T10:28:06.799Z,15.40
2023-10-29T10:30:36.385Z,15.40
2023-10-29T10:33:14.185Z,15.40
2023-10-29T10:35:47.127Z,15.40
2023-10-29T10:38:17.258Z,15.40
2023-10-29T10:40:45.768Z,15.50
2023-10-29T10:43:20.320Z,15.60
2023-10-29T10:45:51.757Z,15.50
2023-10-29T10:48:22.494Z,15.50
2023-10-29T10:50:54.312Z,15.60
2023-10-29T10:53:25.823Z,15.50
2023-10-29T10:56:03.827Z,15.50
2023-10-29T10:58:35.640Z,15.50
2023-10-29T11:01:07.446Z,15.60
2023-10-29T11:03:37.620Z,15.50
2023-10-29T11:06:07.470Z,15.60
2023-10-29T11:08:36.753Z,15.60
2023-10-29T11:11:07.114Z,15.60
2023-10-29T11:13:35.735Z,15.70
2023-10-29T11:16:07.235Z,15.90
2023-10-29T11:18:37.503Z,16.10
2023-10-29T11:21:06.052Z,16.20
2023-10-29T11:23:35.863Z,16.20
2023-10-29T11:26:21.524Z,16.40
2023-10-29T11:28:50.880Z,16.50
2023-10-29T11:31:20.158Z,16.50
2023-10-29T11:34:10.246Z,16.60
2023-10-29T11:36:41.387Z,16.60
2023-10-29T11:39:33.589Z,16.60
2023-10-29T11:42:01.942Z,16.70
2023-10-29T11:44:31.246Z,16.80
2023-10-29T11:47:05.671Z,16.70
2023-10-29T11:50:14.452Z,16.80
2023-10-29T11:52:44.807Z,16.90
2023-10-29T11:55:13.838Z,16.90
2023-10-29T11:57:51.473Z,16.90
2023-10-29T12:00:21.220Z,17.00
2023-10-29T12:02:49.726Z,17.00
2023-10-29T12:05:19.383Z,17.00
2023-10-29T12:07:47.578Z,17.10
2023-10-29T12:10:15.980Z,17.10
2023-10-29T12:12:54.235Z,17.20
2023-10-29T12:15:24.195Z,17.20
2023-10-29T12:17:53.028Z,17.30
2023-10-29T12:20:24.316Z,17.40
2023-10-29T12:22:59.013Z,17.40
2023-10-29T12:25:27.923Z,17.50
2023-10-29T12:27:56.611Z,17.50
2023-10-29T12:30:42.450Z,17.60
2023-10-29T12:33:20.836Z,17.70
2023-10-29T12:35:51.974Z,17.70
2023-10-29T12:38:21.164Z,17.80
2023-10-29T12:41:14.800Z,17.80
2023-10-29T12:43:44.617Z,17.90
2023-10-29T12:46:14.108Z,17.90
2023-10-29T12:48:59.417Z,17.80
2023-10-29T12:51:32.328Z,17.90
2023-10-29T12:54:15.248Z,17.90
2023-10-29T12:56:54.161Z,17.80
2023-10-29T12:59:22.788Z,17.80
2023-10-29T13:01:55.245Z,17.80
2023-10-29T13:04:25.263Z,17.80
2023-10-29T13:06:56.471Z,17.80
2023-10-29T13:09:26.298Z,17.80
2023-10-29T13:11:55.881Z,17.70
2023-10-29T13:14:24.402Z,17.70
2023-10-29T13:16:54.460Z,17.70
2023-10-29T13:19:22.754Z,17.70
2023-10-29T13:21:51.937Z,17.70
2023-10-29T13:24:21.581Z,17.70
2023-10-29T13:26:50.142Z,17.60
2023-10-29T13:29:18.425Z,17.60
2023-10-29T13:31:47.194Z,17.60
2023-10-29T13:34:16.782Z,17.50
2023-10-29T13:36:45.284Z,17.50
2023-10-29T13:39:15.263Z,17.50
2023-10-29T13:41:46.295Z,17.50
2023-10-29T13:44:17.238Z,17.40
2023-10-29T13:46:45.928Z,17.40
2023-10-29T13:49:14.327Z,17.40
2023-10-29T13:51:45.415Z,17.40
2023-10-29T13:54:13.648Z,17.40
2023-10-29T13:56:42.149Z,17.40
2023-10-29T13:59:11.739Z,17.40
2023-10-29T14:01:40.989Z,17.40
2023-10-29T14:04:09.190Z,17.40
2023-10-29T14:06:37.628Z,17.40
2023-10-29T14:09:06.193Z,17.40
2023-10-29T14:11:34.298Z,17.30
2023-10-29T14:14:03.704Z,17.30
2023-10-29T14:16:40.983Z,17.20
2023-10-29T14:19:09.904Z,17.20
2023-10-29T14:21:38.448Z,17.20
2023-10-29T14:24:09.254Z,17.20
2023-10-29T14:26:38.504Z,17.20
2023-10-29T14:29:06.971Z,17.20
2023-10-29T14:31:36.867Z,17.10
2023-10-29T14:34:06.940Z,17.10
2023-10-29T14:36:35.107Z,17.10
2023-10-29T14:39:03.659Z,17.10
2023-10-29T14:41:31.934Z,17.10
2023-10-29T14:44:00.137Z,17.00
2023-10-29T14:46:28.529Z,17.10
2023-10-29T14:48:56.792Z,17.10
2023-10-29T14:51:26.413Z,17.10
2023-10-29T14:53:54.605Z,17.10
2023-10-29T14:56:23.269Z,17.00
2023-10-29T14:58:51.509Z,17.00
2023-10-29T15:01:21.234Z,17.00
2023-10-29T15:03:50.519Z,17.00
2023-10-29T15:06:19.547Z,16.90
2023-10-29T15:08:50.700Z,16.90
2023-10-29T15:11:33.861Z,16.90
2023-10-29T15:14:06.103Z,16.90
2023-10-29T15:16:34.770Z,16.90
2023-10-29T15:19:05.772Z,16.90
2023-10-29T15:21:35.181Z,16.90
2023-10-29T15:24:05.578Z,16.90
2023-10-29T15:26:33.904Z,16.90
2023-10-29T15:29:02.389Z,16.90
2023-10-29T15:31:30.796Z,16.90
2023-10-29T15:33:59.071Z,16.90
2023-10-29T15:36:27.367Z,16.90
2023-10-29T15:38:55.562Z,16.90
2023-10-29T15:41:27.152Z,16.90
2023-10-29T15:43:56.797Z,16.90
2023-10-29T15:46:25.018Z,16.90
2023-10-29T15:48:53.350Z,16.90
2023-10-29T15:51:26.917Z,16.90
2023-10-29T15:53:55.812Z,16.90
2023-10-29T15:56:26.011Z,16.90
2023-10-29T15:58:54.282Z,16.90
2023-10-29T16:01:22.708Z,16.90
2023-10-29T16:03:51.170Z,16.90
2023-10-29T16:06:19.392Z,16.80
2023-10-29T16:08:47.622Z,16.80
2023-10-29T16:11:23.127Z,16.80
2023-10-29T16:13:52.766Z,16.80
2023-10-29T16:16:21.008Z,16.70
2023-10-29T16:18:49.168Z,16.60
2023-10-29T16:21:17.427Z,16.60
2023-10-29T16:23:45.584Z,16.60
2023-10-29T16:26:14.495Z,16.50
2023-10-29T16:28:42.967Z,16.50
2023-10-29T16:31:12.493Z,16.50
2023-10-29T16:33:40.812Z,16.40
2023-10-29T16:36:09.833Z,16.40
2023-10-29T16:38:38.168Z,16.40
2023-10-29T16:41:07.640Z,16.40
2023-10-29T16:43:35.929Z,16.40
2023-10-29T16:46:09.421Z,16.40
2023-10-29T16:48:39.280Z,16.40
2023-10-29T16:51:08.848Z,16.30
2023-10-29T16:53:38.736Z,16.30
2023-10-29T16:56:08.154Z,16.20
2023-10-29T16:58:36.849Z,16.20
2023-10-29T17:01:05.408Z,16.10
2023-10-29T17:03:33.815Z,16.10
2023-10-29T17:06:06.023Z,16.20
2023-10-29T17:08:34.221Z,16.10
2023-10-29T17:11:02.432Z,16.10
2023-10-29T17:13:30.730Z,16.10
2023-10-29T17:16:00.299Z,16.10
2023-10-29T17:18:28.927Z,16.00
2023-10-29T17:20:58.331Z,16.10
2023-10-29T17:23:28.346Z,16.10
2023-10-29T17:25:57.656Z,16.10
2023-10-29T17:28:25.990Z,16.00
2023-10-29T17:30:54.180Z,16.10
2023-10-29T17:33:23.135Z,16.00
2023-10-29T17:35:51.563Z,16.00
2023-10-29T17:38:19.832Z,16.00
2023-10-29T17:40:49.507Z,16.00
2023-10-29T17:43:18.716Z,16.00
2023-10-29T17:45:48.499Z,16.00
2023-10-29T17:48:16.940Z,16.10
2023-10-29T17:50:45.275Z,16.10
2023-10-29T17:53:13.423Z,16.10
2023-10-29T17:55:41.560Z,16.10
2023-10-29T17:58:11.153Z,16.10
2023-10-29T18:00:39.421Z,16.10
2023-10-29T18:03:07.675Z,16.10
2023-10-29T18:05:36.080Z,16.10
2023-10-29T18:08:04.287Z,16.10
2023-10-29T18:10:32.640Z,16.10
2023-10-29T18:13:00.816Z,16.10
2023-10-29T18:15:30.833Z,16.20
2023-10-29T18:17:59.092Z,16.20
2023-10-29T18:20:27.402Z,16.20
2023-10-29T18:22:55.673Z,16.10
2023-10-29T18:25:23.855Z,16.10
2023-10-29T18:27:52.001Z,16.10
2023-10-29T18:30:21.847Z,16.10
2023-10-29T18:32:53.964Z,16.20
2023-10-29T18:35:22.484Z,16.20
2023-10-29T18:37:52.082Z,16.20
2023-10-29T18:40:20.771Z,16.30
2023-10-29T18:42:49.148Z,16.30
2023-10-29T18:45:17.754Z,16.30
2023-10-29T18:47:46.611Z,16.30
2023-10-29T18:50:17.465Z,16.30
2023-10-29T18:52:45.855Z,16.30
2023-10-29T18:55:14.110Z,16.30
2023-10-29T18:57:42.305Z,16.20
2023-10-29T19:00:11.256Z,16.20
2023-10-29T19:02:39.553Z,16.30
2023-10-29T19:05:08.191Z,16.30
2023-10-29T19:07:37.852Z,16.30
2023-10-29T19:10:06.768Z,16.30
2023-10-29T19:12:34.904Z,16.30
2023-10-29T19:15:04.465Z,16.30
2023-10-29T19:17:32.841Z,16.30
2023-10-29T19:20:01.218Z,16.30
2023-10-29T19:22:29.678Z,16.20
2023-10-29T19:24:59.473Z,16.20
2023-10-29T19:27:27.741Z,16.20
2023-10-29T19:29:56.113Z,16.20
2023-10-29T19:32:24.416Z,16.20
2023-10-29T19:34:53.266Z,16.10
2023-10-29T19:37:21.524Z,16.20
2023-10-29T19:39:49.985Z,16.30
2023-10-29T19:42:19.937Z,16.30
2023-10-29T19:44:48.130Z,16.30
2023-10-29T19:47:16.309Z,16.30
2023-10-29T19:49:45.762Z,16.30
2023-10-29T19:52:14.198Z,16.40
2023-10-29T19:54:42.575Z,16.40
2023-10-29T19:57:11.364Z,16.40
2023-10-29T19:59:41.508Z,16.40
2023-10-29T20:02:09.970Z,16.40
2023-10-29T20:04:38.118Z,16.30
2023-10-29T20:07:06.268Z,16.30
2023-10-29T20:09:35.708Z,16.20
2023-10-29T20:12:04.090Z,16.20
2023-10-29T20:14:32.521Z,16.20
2023-10-29T20:17:02.006Z,16.20
2023-10-29T20:19:30.224Z,16.20
2023-10-29T20:21:58.471Z,16.20
2023-10-29T20:24:26.653Z,16.30
2023-10-29T20:26:55.793Z,16.30
2023-10-29T20:29:24.279Z,16.20
2023-10-29T20:31:52.695Z,16.20
2023-10-29T20:34:24.105Z,16.20
2023-10-29T20:36:52.770Z,16.20
2023-10-29T20:39:20.993Z,16.20
2023-10-29T20:41:49.193Z,16.20
2023-10-29T20:44:17.396Z,16.20
2023-10-29T20:46:45.518Z,16.20
2023-10-29T20:49:16.792Z,16.10
2023-10-29T20:51:46.486Z,16.10
2023-10-29T20:54:14.686Z,16.10
2023-10-29T20:56:42.840Z,16.10
2023-10-29T20:59:11.068Z,16.00
2023-10-29T21:01:39.259Z,16.10
2023-10-29T21:04:07.658Z,16.00
2023-10-29T21:06:36.084Z,16.00
2023-10-29T21:09:08.609Z,16.00
2023-10-29T21:11:36.902Z,16.00
2023-10-29T21:14:05.211Z,15.90
2023-10-29T21:16:34.247Z,15.90
2023-10-29T21:19:06.668Z,15.90
2023-10-29T21:21:34.965Z,15.90
2023-10-29T21:24:03.802Z,15.80
2023-10-29T21:26:35.321Z,15.90
2023-10-29T21:29:03.610Z,15.90
2023-10-29T21:31:31.900Z,15.90
2023-10-29T21:34:00.772Z,15.90
2023-10-29T21:36:29.239Z,15.90
2023-10-29T21:38:57.470Z,15.80
2023-10-29T21:41:29.604Z,15.90
2023-10-29T21:43:59.203Z,15.80
2023-10-29T21:46:27.514Z,15.80
2023-10-29T21:48:55.760Z,15.80
2023-10-29T21:51:24.610Z,15.80
2023-10-29T21:53:53.030Z,15.80
2023-10-29T21:56:21.180Z,15.80
2023-10-29T21:58:49.313Z,15.70
2023-10-29T22:01:23.257Z,15.70
2023-10-29T22:03:51.795Z,15.70
2023-10-29T22:06:21.965Z,15.60
2023-10-29T22:08:50.252Z,15.60
2023-10-29T22:11:18.460Z,15.60
2023-10-29T22:13:46.628Z,15.50
2023-10-29T22:16:16.042Z,15.50
2023-10-29T22:18:45.700Z,15.50
2023-10-29T22:21:14.598Z,15.50
2023-10-29T22:23:42.778Z,15.50
2023-10-29T22:26:10.977Z,15.50
2023-10-29T22:28:39.668Z,15.50
2023-10-29T22:31:08.109Z,15.50
2023-10-29T22:33:36.314Z,15.50
2023-10-29T22:36:08.063Z,15.50
2023-10-29T22:38:36.419Z,15.50
2023-10-29T22:41:05.850Z,15.50
2023-10-29T22:43:34.620Z,15.50
2023-10-29T22:46:03.995Z,15.40
2023-10-29T22:48:32.591Z,15.40
2023-10-29T22:51:02.985Z,15.40
2023-10-29T22:53:32.895Z,15.40
2023-10-29T22:56:01.550Z,15.40
2023-10-29T22:58:29.872Z,15.40
2023-10-29T23:00:58.607Z,15.40
2023-10-29T23:03:28.276Z,15.30
2023-10-29T23:05:56.902Z,15.30
2023-10-29T23:08:25.289Z,15.20
2023-10-29T23:10:56.832Z,15.20
2023-10-29T23:13:26.268Z,15.20
2023-10-29T23:15:56.261Z,15.20
2023-10-29T23:18:25.206Z,15.30
2023-10-29T23:20:53.524Z,15.30
2023-10-29T23:23:21.828Z,15.30
2023-10-29T23:25:49.905Z,15.20
2023-10-29T23:28:34.171Z,15.20
2023-10-29T23:31:05.911Z,15.20
2023-10-29T23:33:34.133Z,15.20
2023-10-29T23:36:02.442Z,15.10
2023-10-29T23:38:30.682Z,15.10
2023-10-29T23:40:58.942Z,15.10
2023-10-29T23:43:29.989Z,15.10
2023-10-29T23:45:58.207Z,15.10
2023-10-29T23:48:26.873Z,15.00
2023-10-29T23:50:55.308Z,15.10
2023-10-29T23:53:23.512Z,15.00
2023-10-29T23:55:51.700Z,15.00
2023-10-29T23:58:20.338Z,15.00
